Deline, Canada
Current Conditions -  °F | °C
As of 1:00 AM on Thursday 18 Dec 2014 (Local Time) from CYVQ Reporting Station
Ice Pellets Ice Pellets  
Wind Chill: -2°   Ceiling: 9000
Heat Index: -2°   Visibility: 30mi
Dew Point: -8°   Wind: 0mph
Humidity: 78%   Direction: NA
Pressure: 29.75"   Gusts: NA
Location:  65.18°N, 123.42°W
Report Text: CYVQ 180800Z 00000KT 30SM IC FEW040 BKN090 M19/M22 A2975 RMK SC2AC5 SLP084
Loading
Personal Weather Stations






























Interactive Weather Map New forecast layout! Learn more

10-Day Weather Forecast

Advertisements
Track Severe Weather on mobile